createdAt,value
2023-12-28T00:02:11.857Z,98432.41
2023-12-28T00:07:14.850Z,98431.44
2023-12-28T00:12:17.223Z,98436.94
2023-12-28T00:17:19.705Z,98444.38
2023-12-28T00:22:21.954Z,98442.84
2023-12-28T00:27:24.307Z,98451.63
2023-12-28T00:32:26.798Z,98452.59
2023-12-28T00:37:29.160Z,98456.16
2023-12-28T00:42:31.654Z,98446.81
2023-12-28T00:47:34.117Z,98449.56
2023-12-28T00:52:36.522Z,98461.50
2023-12-28T00:57:38.860Z,98466.59
2023-12-28T01:02:41.151Z,98472.63
2023-12-28T01:07:43.466Z,98468.50
2023-12-28T01:12:46.384Z,98468.78
2023-12-28T01:17:48.946Z,98476.19
2023-12-28T01:22:51.737Z,98480.84
2023-12-28T01:27:54.133Z,98496.66
2023-12-28T01:32:56.765Z,98489.94
2023-12-28T01:38:01.766Z,98486.63
2023-12-28T01:43:04.405Z,98497.34
2023-12-28T01:48:07.123Z,98499.97
2023-12-28T01:53:11.809Z,98500.38
2023-12-28T01:58:14.236Z,98505.59
2023-12-28T02:03:16.701Z,98511.78
2023-12-28T02:08:18.951Z,98516.72
2023-12-28T02:13:21.342Z,98521.13
2023-12-28T02:18:30.850Z,98531.66
2023-12-28T02:23:34.953Z,98523.00
2023-12-28T02:28:37.350Z,98522.19
2023-12-28T02:33:52.377Z,98523.56
2023-12-28T02:38:59.707Z,98531.66
2023-12-28T02:44:02.120Z,98542.09
2023-12-28T02:49:04.522Z,98541.00
2023-12-28T02:54:09.505Z,98514.09
2023-12-28T02:59:12.120Z,98534.03
2023-12-28T03:04:14.580Z,98539.81
2023-12-28T03:09:16.998Z,98547.63
2023-12-28T03:14:19.556Z,98557.94
2023-12-28T03:19:22.207Z,98558.19
2023-12-28T03:24:24.688Z,98555.31
2023-12-28T03:29:29.248Z,98566.88
2023-12-28T03:34:32.056Z,98577.56
2023-12-28T03:39:35.493Z,98564.25
2023-12-28T03:44:37.994Z,98579.47
2023-12-28T03:49:40.939Z,98583.34
2023-12-28T03:54:43.354Z,98578.78
2023-12-28T03:59:45.664Z,98578.13
2023-12-28T04:04:48.032Z,98564.38
2023-12-28T04:09:50.627Z,98576.34
2023-12-28T04:14:53.084Z,98593.34
2023-12-28T04:19:55.513Z,98591.00
2023-12-28T04:24:58.026Z,98568.75
2023-12-28T04:30:00.373Z,98603.09
2023-12-28T04:35:04.836Z,98604.06
2023-12-28T04:40:08.011Z,98601.88
2023-12-28T04:45:11.574Z,98617.25
2023-12-28T04:50:14.040Z,98626.88
2023-12-28T04:55:16.501Z,98621.22
2023-12-28T05:00:20.478Z,98617.09
2023-12-28T05:05:24.648Z,98627.84
2023-12-28T05:10:27.396Z,98630.41
2023-12-28T05:15:30.657Z,98648.16
2023-12-28T05:20:33.321Z,98648.41
2023-12-28T05:25:35.820Z,98647.31
2023-12-28T05:30:39.029Z,98656.09
2023-12-28T05:35:41.497Z,98651.75
2023-12-28T05:40:45.826Z,98653.41
2023-12-28T05:45:48.215Z,98667.97
2023-12-28T05:50:51.004Z,98677.16
2023-12-28T05:55:53.349Z,98673.06
2023-12-28T06:00:56.088Z,98681.72
2023-12-28T06:05:58.786Z,98700.50
2023-12-28T06:11:01.123Z,98706.56
2023-12-28T06:16:03.958Z,98696.81
2023-12-28T06:21:07.532Z,98715.38
2023-12-28T06:26:09.837Z,98721.84
2023-12-28T06:31:12.406Z,98732.69
2023-12-28T06:36:14.929Z,98736.41
2023-12-28T06:41:17.346Z,98751.22
2023-12-28T06:46:20.250Z,98764.13
2023-12-28T06:51:23.800Z,98773.47
2023-12-28T06:56:26.857Z,98773.47
2023-12-28T07:01:29.452Z,98775.69
2023-12-28T07:06:31.893Z,98788.09
2023-12-28T07:11:34.459Z,98782.19
2023-12-28T07:16:36.870Z,98791.97
2023-12-28T07:21:39.165Z,98795.28
2023-12-28T07:26:41.658Z,98793.63
2023-12-28T07:31:44.048Z,98803.38
2023-12-28T07:36:46.400Z,98793.19
2023-12-28T07:41:51.005Z,98793.50
2023-12-28T07:46:53.273Z,98815.34
2023-12-28T07:51:55.730Z,98831.00
2023-12-28T07:56:58.092Z,98827.06
2023-12-28T08:02:00.466Z,98837.53
2023-12-28T08:07:03.068Z,98837.09
2023-12-28T08:12:06.049Z,98842.50
2023-12-28T08:17:08.404Z,98849.53
2023-12-28T08:22:10.848Z,98847.75
2023-12-28T08:27:13.340Z,98849.97
2023-12-28T08:32:16.035Z,98859.59
2023-12-28T08:37:18.355Z,98870.19
2023-12-28T08:42:21.120Z,98844.41
2023-12-28T08:47:23.740Z,98872.72
2023-12-28T08:52:26.111Z,98862.38
2023-12-28T08:57:39.433Z,98881.66
2023-12-28T09:02:44.765Z,98884.13
2023-12-28T09:07:48.464Z,98887.69
2023-12-28T09:12:50.856Z,98896.63
2023-12-28T09:17:53.396Z,98898.72
2023-12-28T09:22:57.754Z,98892.94
2023-12-28T09:28:00.459Z,98899.13
2023-12-28T09:33:03.205Z,98888.78
2023-12-28T09:38:05.746Z,98910.78
2023-12-28T09:43:20.443Z,98915.22
2023-12-28T09:48:24.157Z,98905.91
2023-12-28T09:53:27.399Z,98910.50
2023-12-28T09:58:32.237Z,98915.31
2023-12-28T10:03:34.608Z,98923.88
2023-12-28T10:08:37.308Z,98914.78
2023-12-28T10:13:39.663Z,98914.25
2023-12-28T10:18:45.920Z,98905.00
2023-12-28T10:23:48.395Z,98884.56
2023-12-28T10:28:50.786Z,98911.47
2023-12-28T10:33:53.840Z,98912.56
2023-12-28T10:39:02.030Z,98915.53
2023-12-28T10:44:09.554Z,98910.25
2023-12-28T10:49:17.700Z,98927.38
2023-12-28T10:54:29.313Z,98911.97
2023-12-28T10:59:34.502Z,98912.00
2023-12-28T11:04:47.782Z,98917.88
2023-12-28T11:09:50.988Z,98921.47
2023-12-28T11:14:54.513Z,98913.25
2023-12-28T11:19:58.053Z,98923.59
2023-12-28T11:25:00.557Z,98935.63
2023-12-28T11:30:04.950Z,98921.69
2023-12-28T11:35:11.437Z,98928.81
2023-12-28T11:40:18.034Z,98935.25
2023-12-28T11:45:22.945Z,98929.44
2023-12-28T11:50:25.298Z,98929.94
2023-12-28T11:55:27.773Z,98928.31
2023-12-28T12:00:30.147Z,98943.13
2023-12-28T12:05:32.774Z,98943.13
2023-12-28T12:10:35.369Z,98955.84
2023-12-28T12:15:38.230Z,98956.63
2023-12-28T12:20:41.252Z,98928.91
2023-12-28T12:25:46.744Z,98954.97
2023-12-28T12:30:59.335Z,98960.88
2023-12-28T12:36:02.412Z,98978.91
2023-12-28T12:41:04.917Z,98971.88
2023-12-28T12:46:07.460Z,98988.53
2023-12-28T12:51:10.053Z,98989.88
2023-12-28T12:56:12.614Z,98996.25
2023-12-28T13:01:15.225Z,99009.78
2023-12-28T13:06:17.816Z,99011.19
2023-12-28T13:11:24.829Z,99020.19
2023-12-28T13:16:27.384Z,99010.13
2023-12-28T13:21:30.057Z,99010.81
2023-12-28T13:26:32.362Z,99013.91
2023-12-28T13:31:36.064Z,99022.91
2023-12-28T13:36:38.429Z,99022.44
2023-12-28T13:41:41.596Z,99013.44
2023-12-28T13:46:44.638Z,99014.03
2023-12-28T13:51:47.612Z,99025.84
2023-12-28T13:56:50.030Z,99022.06
2023-12-28T14:01:52.801Z,99023.28
2023-12-28T14:06:55.426Z,99022.53
2023-12-28T14:11:57.863Z,99019.59
2023-12-28T14:17:00.073Z,99017.81
2023-12-28T14:22:02.832Z,99019.34
2023-12-28T14:27:05.640Z,99030.34
2023-12-28T14:32:08.690Z,99031.19
2023-12-28T14:37:10.996Z,99035.34
2023-12-28T14:42:15.048Z,99032.50
2023-12-28T14:47:17.357Z,99007.88
2023-12-28T14:52:19.640Z,99018.53
2023-12-28T14:57:23.770Z,99002.91
2023-12-28T15:02:26.093Z,98996.16
2023-12-28T15:07:28.374Z,98990.34
2023-12-28T15:12:30.986Z,98964.06
2023-12-28T15:17:33.790Z,98994.88
2023-12-28T15:22:37.279Z,98993.88
2023-12-28T15:27:39.906Z,98968.66
2023-12-28T15:32:42.886Z,98966.66
2023-12-28T15:37:45.324Z,98966.06
2023-12-28T15:42:49.574Z,98959.56
2023-12-28T15:47:52.291Z,98958.03
2023-12-28T15:52:54.520Z,98969.41
2023-12-28T15:57:57.030Z,98957.78
2023-12-28T16:02:59.358Z,98967.25
2023-12-28T16:08:02.071Z,98959.91
2023-12-28T16:13:05.237Z,98964.91
2023-12-28T16:18:08.128Z,98949.63
2023-12-28T16:23:10.564Z,98956.72
2023-12-28T16:28:13.205Z,98930.34
2023-12-28T16:33:15.593Z,98954.59
2023-12-28T16:38:18.733Z,98944.91
2023-12-28T16:43:21.054Z,98956.75
2023-12-28T16:48:24.205Z,98948.44
2023-12-28T16:53:26.650Z,98958.03
2023-12-28T16:58:29.011Z,98952.72
2023-12-28T17:03:35.086Z,98964.19
2023-12-28T17:08:37.822Z,98955.53
2023-12-28T17:13:40.432Z,98964.06
2023-12-28T17:18:43.071Z,98966.44
2023-12-28T17:23:53.501Z,98962.16
2023-12-28T17:29:08.940Z,98968.56
2023-12-28T17:34:11.905Z,98973.06
2023-12-28T17:39:14.465Z,98959.09
2023-12-28T17:44:25.870Z,98920.63
2023-12-28T17:49:30.783Z,98925.25
2023-12-28T17:54:33.356Z,98927.03
2023-12-28T17:59:35.723Z,98920.28
2023-12-28T18:04:38.323Z,98926.44
2023-12-28T18:09:44.283Z,98922.66
2023-12-28T18:14:46.553Z,98864.09
2023-12-28T18:19:48.987Z,98906.22
2023-12-28T18:24:51.501Z,98906.09
2023-12-28T18:29:54.619Z,98907.88
2023-12-28T18:34:57.181Z,98878.41
2023-12-28T18:39:59.386Z,98879.13
2023-12-28T18:45:02.060Z,98879.59
2023-12-28T18:50:08.084Z,98868.00
2023-12-28T18:55:10.467Z,98870.97
2023-12-28T19:00:13.378Z,98856.88
2023-12-28T19:05:17.257Z,98837.81
2023-12-28T19:10:19.803Z,98859.97
2023-12-28T19:15:22.182Z,98853.56
2023-12-28T19:20:24.676Z,98864.56
2023-12-28T19:25:26.976Z,98855.91
2023-12-28T19:30:29.373Z,98836.19
2023-12-28T19:35:31.798Z,98834.06
2023-12-28T19:40:34.108Z,98807.78
2023-12-28T19:45:36.426Z,98831.69
2023-12-28T19:50:41.042Z,98829.56
2023-12-28T19:55:44.426Z,98814.53
2023-12-28T20:00:46.845Z,98807.44
2023-12-28T20:05:49.199Z,98811.31
2023-12-28T20:10:51.500Z,98808.72
2023-12-28T20:15:53.934Z,98809.34
2023-12-28T20:20:56.734Z,98807.88
2023-12-28T20:25:59.094Z,98811.66
2023-12-28T20:31:01.932Z,98824.59
2023-12-28T20:36:04.610Z,98827.66
2023-12-28T20:41:07.664Z,98818.44
2023-12-28T20:46:09.966Z,98802.81
2023-12-28T20:51:13.192Z,98792.78
2023-12-28T20:56:15.830Z,98769.13
2023-12-28T21:01:18.309Z,98756.53
2023-12-28T21:06:20.763Z,98752.97
2023-12-28T21:11:23.085Z,98762.31
2023-12-28T21:16:26.593Z,98757.22
2023-12-28T21:21:28.893Z,98746.09
2023-12-28T21:26:31.257Z,98735.00
2023-12-28T21:31:35.241Z,98745.88
2023-12-28T21:36:37.672Z,98727.41
2023-12-28T21:41:40.033Z,98726.22
2023-12-28T21:46:42.866Z,98733.38
2023-12-28T21:51:45.444Z,98733.69
2023-12-28T21:56:47.769Z,98728.72
2023-12-28T22:01:50.157Z,98726.41
2023-12-28T22:06:52.613Z,98728.03
2023-12-28T22:11:54.914Z,98716.34
2023-12-28T22:16:57.353Z,98705.72
2023-12-28T22:21:59.593Z,98706.66
2023-12-28T22:27:02.676Z,98681.16
2023-12-28T22:32:05.179Z,98682.63
2023-12-28T22:37:07.758Z,98680.75
2023-12-28T22:42:12.390Z,98684.28
2023-12-28T22:47:14.591Z,98677.06
2023-12-28T22:52:17.381Z,98689.13
2023-12-28T22:57:19.899Z,98652.66
2023-12-28T23:02:22.140Z,98666.06
2023-12-28T23:07:25.649Z,98666.97
2023-12-28T23:12:28.310Z,98660.69
2023-12-28T23:17:30.704Z,98649.63
2023-12-28T23:22:33.909Z,98641.31
2023-12-28T23:27:36.202Z,98631.59
2023-12-28T23:32:38.706Z,98618.03
2023-12-28T23:37:41.189Z,98597.41
2023-12-28T23:42:43.466Z,98587.09
2023-12-28T23:47:45.773Z,98584.63
2023-12-28T23:52:48.046Z,98580.94
2023-12-28T23:57:50.449Z,98573.84
